Airfield :
LOGIN :

Register | Disclaimer

   EN    FR    IT 

 










Legend :    VFR   Marginal VFR   IFR   Intensive IFR   Very Intensive IFR
Visi :
Ceiling :
>= 8 km
>= 3000ft
5 to 8 km
1000 to 3000 ft
1500m to 5 km
500 to 1000 ft
800 to 1500m
200 to 500 ft
< 800m
< 200 ft
Symbols :   Thunderstorms  Fog  Heavy snow  Heavy precipitations  Wind > 20 kt
SIGMETs :     Misc.  Thunderstorms  Icing  Turbulence  Mountain Waves  Volcanic Ashes






- Airport Elevation : 1197 ft
- IATA code : SPM


ETAD - Spangdahlem Ab

CURRENT METAR :
  • 171756Z 08003KT 9999 CLR 15/10 A2999 RMK AO2A SLP145 T01500102 10209 20150 57002 $

EXPIRED METARs :
  • 171656Z COR AUTO 00000KT 9999 FEW060 17/10 A2999 RMK AO2 SLP143 T01680097 $ COR 1709
  • 171556Z 00000KT 9999 OVC060 18/10 A2999 RMK AO2A SLP143 T01840095 $
  • 171543Z AUTO 00000KT 9999 -DZ OVC060 19/08 A3000 RMK AO2 DZB43 SLP145 $
  • 171511Z AUTO 00000KT 9999 BKN065 20/08 A3000 RMK AO2 SLP145 $

TAF TAF ETAD
Valid from the 17 at 12:00 until the 18 at 18:00 UTC


171200Z 1712/1818 VRB02KT 9999 FEW035 BKN060 QNH3002INS
BECMG 1807/1808 09005KT 9999 SCT050 QNH3003INS TX20/1812Z TN13/1804Z



MET'MAP, your aeronautical weather chart ! - Copyright ORBIFLY December 2007 - Disclaimer

ORBIFLY MET'MAP TEAM :

Programming & Development : Alexandra Zaïnal
Concept & original design : Baudouin d'Aumeries
Assistance for programming : Marc-Olivier Méhu
Technical & hardware support : Manuel Goepfert

Contact : metmap@orbifly.com




SOURCES & CREDITS :

   NOAA